Time;durP1;ratioP1;P1;durP2;ratioP2;P2;SDS_P1;SDS_P2;PMS_P1;PMS_P2;Temp;Humidity;BMP_temperature;BMP_pressure;BME280_temperature;BME280_humidity;BME280_pressure;Samples;Min_cycle;Max_cycle;Signal;HPM_P1;HPM_P2
2022/10/27 00:00:33;;;;;;;12.97;8.67;;;15.50;50.10;;;;;;5014903;28;20601;-45
2022/10/27 00:02:58;;;;;;;13.90;9.03;;;15.60;50.30;;;;;;5015007;28;20245;-45
2022/10/27 00:05:24;;;;;;;15.23;9.40;;;15.60;50.20;;;;;;5014958;28;20489;-44
2022/10/27 00:07:50;;;;;;;12.87;8.20;;;15.60;50.00;;;;;;5014374;28;20504;-45
2022/10/27 00:10:17;;;;;;;16.50;9.03;;;15.60;49.80;;;;;;5014929;28;20203;-45
2022/10/27 00:12:42;;;;;;;13.20;7.93;;;15.70;49.90;;;;;;5015152;28;20410;-45
2022/10/27 00:15:09;;;;;;;12.57;9.00;;;15.70;49.90;;;;;;5015058;28;20663;-45
2022/10/27 00:17:35;;;;;;;15.02;8.65;;;15.70;50.20;;;;;;5016745;28;20204;-43
2022/10/27 00:20:01;;;;;;;13.70;9.23;;;15.80;49.90;;;;;;5017098;28;20562;-45
2022/10/27 00:22:27;;;;;;;13.50;9.67;;;15.80;50.00;;;;;;5017340;28;20201;-43
2022/10/27 00:24:53;;;;;;;13.30;9.43;;;15.70;49.80;;;;;;5053147;22;20579;-45
2022/10/27 00:27:19;;;;;;;15.47;10.00;;;15.80;49.90;;;;;;5041903;28;20413;-44
2022/10/27 00:29:45;;;;;;;19.73;9.23;;;15.80;49.90;;;;;;5033649;28;20733;-43
2022/10/27 00:32:10;;;;;;;12.97;9.00;;;15.80;50.20;;;;;;5034288;28;20895;-43
2022/10/27 00:34:36;;;;;;;14.73;8.53;;;15.80;50.30;;;;;;5034149;28;20500;-44
2022/10/27 00:37:02;;;;;;;13.27;10.40;;;15.90;50.40;;;;;;5033637;28;20166;-44
2022/10/27 00:39:27;;;;;;;12.73;9.60;;;15.90;50.60;;;;;;5034041;28;20170;-44
2022/10/27 00:41:53;;;;;;;12.70;8.90;;;16.00;50.70;;;;;;5034191;28;20201;-45
2022/10/27 00:44:37;;;;;;;13.40;8.07;;;16.00;50.80;;;;;;5033828;28;20200;-46
2022/10/27 00:47:08;;;;;;;13.15;9.15;;;16.10;50.80;;;;;;5033484;28;20249;-44
2022/10/27 00:50:00;;;;;;;15.13;9.98;;;16.10;50.80;;;;;;5033916;28;20170;-43
2022/10/27 00:52:31;;;;;;;18.88;11.80;;;16.20;50.80;;;;;;4995816;28;20174;-44
2022/10/27 00:55:06;;;;;;;10.90;8.73;;;16.20;50.80;;;;;;5033700;28;20545;-45
2022/10/27 00:57:33;;;;;;;15.15;9.18;;;16.20;50.70;;;;;;5033211;28;20211;-44
2022/10/27 01:00:02;;;;;;;12.30;8.98;;;16.30;50.70;;;;;;5033754;28;20170;-44
2022/10/27 01:02:29;;;;;;;17.15;10.52;;;16.30;50.70;;;;;;5033537;28;20197;-44
2022/10/27 01:05:13;;;;;;;9.00;7.40;;;16.40;50.70;;;;;;5033496;28;20236;-44
2022/10/27 01:07:41;;;;;;;11.60;8.27;;;16.40;50.60;;;;;;5033220;28;20182;-44
2022/10/27 01:10:07;;;;;;;11.65;8.75;;;16.40;50.60;;;;;;5033739;28;20529;-44
2022/10/27 01:12:33;;;;;;;15.50;9.57;;;16.40;50.50;;;;;;5033429;28;20538;-43
2022/10/27 01:15:00;;;;;;;12.32;8.65;;;16.40;50.50;;;;;;5033590;28;20200;-43
2022/10/27 01:17:31;;;;;;;13.82;8.25;;;16.40;50.40;;;;;;5032727;28;20268;-44
2022/10/27 01:19:57;;;;;;;15.40;9.98;;;16.40;50.40;;;;;;5033303;28;20178;-44
2022/10/27 01:22:49;;;;;;;17.57;9.80;;;16.40;50.40;;;;;;5033312;28;20211;-44
2022/10/27 01:25:23;;;;;;;15.25;9.15;;;16.50;50.40;;;;;;5033060;28;20237;-43
2022/10/27 01:27:55;;;;;;;12.65;8.95;;;16.40;50.40;;;;;;5032585;28;20165;-43
2022/10/27 01:30:22;;;;;;;15.02;8.88;;;16.40;50.40;;;;;;5033067;28;20166;-43
2022/10/27 01:33:11;;;;;;;13.85;9.18;;;16.40;50.40;;;;;;5033215;28;20261;-44
2022/10/27 01:36:01;;;;;;;22.10;9.73;;;16.40;50.40;;;;;;5032378;28;20629;-44
2022/10/27 01:38:37;;;;;;;12.63;8.52;;;16.40;50.20;;;;;;5032916;28;20170;-45
2022/10/27 01:41:15;;;;;;;14.88;9.25;;;16.30;50.30;;;;;;5032058;28;20166;-43
2022/10/27 01:43:42;;;;;;;15.07;8.30;;;16.30;50.20;;;;;;5032908;28;20292;-44
2022/10/27 01:46:10;;;;;;;15.27;9.50;;;16.30;50.10;;;;;;5032262;28;20221;-43
2022/10/27 01:48:37;;;;;;;15.85;10.82;;;16.30;50.10;;;;;;5032804;28;20173;-45
2022/10/27 01:51:03;;;;;;;11.02;7.72;;;16.20;50.00;;;;;;5032892;28;20180;-45
2022/10/27 01:53:31;;;;;;;13.25;8.27;;;16.20;49.80;;;;;;5032600;28;20666;-44
2022/10/27 01:56:03;;;;;;;17.40;9.27;;;16.10;49.70;;;;;;5032030;28;20180;-44
2022/10/27 01:58:29;;;;;;;14.10;9.07;;;16.10;49.60;;;;;;5032637;28;20153;-44
2022/10/27 02:01:14;;;;;;;11.60;8.87;;;16.10;49.40;;;;;;5032736;28;20170;-44
2022/10/27 02:03:45;;;;;;;11.32;8.98;;;15.90;49.30;;;;;;5032560;28;20210;-43
2022/10/27 02:06:25;;;;;;;10.60;8.05;;;15.90;49.40;;;;;;5031977;28;20729;-43
2022/10/27 02:08:58;;;;;;;11.48;8.13;;;15.80;49.30;;;;;;5032516;28;20268;-43
2022/10/27 02:11:26;;;;;;;12.75;7.45;;;15.70;49.30;;;;;;5032671;28;20188;-43
2022/10/27 02:13:54;;;;;;;12.20;7.57;;;15.70;49.40;;;;;;5032482;28;20613;-43
2022/10/27 02:16:25;;;;;;;9.05;7.40;;;15.60;49.20;;;;;;5031817;28;20170;-43
2022/10/27 02:18:57;;;;;;;9.20;7.00;;;15.60;49.00;;;;;;5032310;28;20664;-45
2022/10/27 02:21:24;;;;;;;12.50;7.82;;;15.50;49.00;;;;;;5032181;28;20799;-44
2022/10/27 02:23:51;;;;;;;16.58;7.78;;;15.50;49.10;;;;;;5032043;28;20534;-44
2022/10/27 02:26:46;;;;;;;13.20;7.72;;;15.40;49.00;;;;;;5031626;28;20645;-44
2022/10/27 02:29:15;;;;;;;12.10;8.27;;;15.40;48.90;;;;;;5023645;28;20653;-44
2022/10/27 02:31:47;;;;;;;13.27;7.93;;;15.40;49.10;;;;;;5032084;28;20207;-44
2022/10/27 02:34:14;;;;;;;10.65;6.75;;;15.30;49.10;;;;;;5032043;28;20189;-43
2022/10/27 02:36:40;;;;;;;11.80;8.20;;;15.30;49.00;;;;;;5031431;28;20189;-44
2022/10/27 02:39:06;;;;;;;7.87;6.70;;;15.30;49.00;;;;;;5014410;28;20178;-43
2022/10/27 02:41:32;;;;;;;10.10;7.33;;;15.30;49.10;;;;;;5032209;28;20208;-44
2022/10/27 02:43:57;;;;;;;10.57;8.23;;;15.20;49.00;;;;;;5031979;28;20268;-45
2022/10/27 02:46:23;;;;;;;8.67;6.90;;;15.20;49.00;;;;;;5031485;28;20166;-43
2022/10/27 02:48:49;;;;;;;9.90;6.93;;;15.10;49.00;;;;;;5032028;28;20162;-43
2022/10/27 02:51:14;;;;;;;9.33;6.90;;;14.60;48.70;;;;;;5032079;28;20173;-44
2022/10/27 02:53:40;;;;;;;11.37;7.87;;;15.10;48.90;;;;;;5034936;28;20587;-45
2022/10/27 02:56:07;;;;;;;8.47;6.60;;;15.00;48.80;;;;;;5035453;28;20239;-44
2022/10/27 02:58:34;;;;;;;8.38;6.53;;;15.00;48.80;;;;;;5035938;28;20178;-43
2022/10/27 03:00:59;;;;;;;11.38;7.43;;;15.00;48.70;;;;;;5035840;28;20178;-45
2022/10/27 03:03:25;;;;;;;10.10;6.93;;;15.00;48.60;;;;;;5035797;28;20173;-44
2022/10/27 03:05:51;;;;;;;7.50;6.50;;;15.00;48.50;;;;;;5035104;28;20412;-44
2022/10/27 03:08:17;;;;;;;12.50;6.50;;;15.00;48.50;;;;;;5035821;28;20166;-44
2022/10/27 03:10:43;;;;;;;9.23;6.63;;;14.90;48.60;;;;;;5036007;28;20510;-45
2022/10/27 03:13:09;;;;;;;9.35;6.53;;;14.90;48.50;;;;;;5035591;28;20181;-44
2022/10/27 03:15:35;;;;;;;8.65;6.50;;;14.80;48.50;;;;;;5035307;28;20181;-44
2022/10/27 03:18:01;;;;;;;12.17;5.93;;;14.80;48.60;;;;;;5035630;28;20170;-42
2022/10/27 03:20:27;;;;;;;10.27;6.77;;;14.80;48.60;;;;;;5035456;28;20764;-44
2022/10/27 03:22:53;;;;;;;8.60;6.53;;;14.70;48.50;;;;;;5035375;28;20517;-45
2022/10/27 03:25:19;;;;;;;9.10;6.43;;;14.70;48.50;;;;;;5035282;28;20206;-44
2022/10/27 03:27:45;;;;;;;8.80;6.63;;;14.70;48.50;;;;;;5034855;28;20889;-43
2022/10/27 03:30:15;;;;;;;9.93;6.57;;;14.70;48.40;;;;;;5035374;28;20404;-46
2022/10/27 03:32:48;;;;;;;7.38;4.88;;;14.60;48.50;;;;;;5035295;28;20900;-44
2022/10/27 03:35:16;;;;;;;9.30;6.25;;;14.60;48.40;;;;;;5035394;28;20197;-45
2022/10/27 03:37:41;;;;;;;7.50;5.65;;;14.60;48.60;;;;;;5034610;28;20580;-44
2022/10/27 03:40:08;;;;;;;8.47;6.13;;;14.50;48.50;;;;;;5035085;28;20181;-43
2022/10/27 03:42:33;;;;;;;9.15;6.03;;;14.50;48.50;;;;;;5035167;28;20281;-44
2022/10/27 03:44:59;;;;;;;7.73;6.00;;;14.50;48.60;;;;;;5035023;28;20340;-42
2022/10/27 03:47:25;;;;;;;12.07;7.00;;;14.50;48.70;;;;;;5034437;28;20301;-43
2022/10/27 03:49:51;;;;;;;10.27;6.77;;;14.40;49.30;;;;;;5034925;28;20166;-45
2022/10/27 03:52:16;;;;;;;10.20;6.53;;;14.40;48.60;;;;;;5034951;28;20174;-44
2022/10/27 03:54:42;;;;;;;8.90;6.30;;;14.40;48.50;;;;;;5034959;28;20205;-43
2022/10/27 03:57:12;;;;;;;12.37;6.07;;;14.40;48.60;;;;;;5034331;28;20901;-43
2022/10/27 03:59:38;;;;;;;8.38;6.07;;;14.40;48.60;;;;;;5034723;28;20654;-43
2022/10/27 04:02:04;;;;;;;9.13;6.28;;;14.40;48.70;;;;;;5034638;28;20565;-42
2022/10/27 04:04:29;;;;;;;9.90;6.40;;;14.40;48.40;;;;;;5033661;28;20192;-44
2022/10/27 04:06:55;;;;;;;7.53;5.97;;;14.40;48.60;;;;;;5034086;28;20236;-43
2022/10/27 04:09:21;;;;;;;8.33;6.00;;;14.30;48.20;;;;;;5034616;28;20170;-45
2022/10/27 04:11:47;;;;;;;11.47;7.00;;;14.30;48.40;;;;;;5034662;28;20576;-43
2022/10/27 04:14:13;;;;;;;9.03;5.70;;;14.30;48.60;;;;;;5034557;28;20204;-42
2022/10/27 04:16:39;;;;;;;7.40;6.50;;;14.30;48.70;;;;;;5033809;28;20197;-43
2022/10/27 04:19:04;;;;;;;9.60;6.30;;;14.30;48.70;;;;;;5034484;28;20245;-44
2022/10/27 04:21:30;;;;;;;11.90;5.90;;;14.30;48.60;;;;;;5034342;28;20789;-44
2022/10/27 04:23:56;;;;;;;7.37;5.07;;;14.30;48.50;;;;;;5034166;28;20202;-44
2022/10/27 04:26:21;;;;;;;8.80;6.10;;;14.30;48.50;;;;;;5033737;28;20170;-44
2022/10/27 04:28:47;;;;;;;11.23;7.97;;;14.30;48.50;;;;;;5034306;28;20170;-43
2022/10/27 04:31:13;;;;;;;8.90;5.73;;;14.30;48.50;;;;;;5034265;28;20181;-43
2022/10/27 04:33:40;;;;;;;8.67;5.97;;;14.30;48.80;;;;;;5034040;28;20194;-43
2022/10/27 04:36:06;;;;;;;10.20;7.00;;;14.30;48.70;;;;;;5033551;28;20185;-43
2022/10/27 04:38:32;;;;;;;11.18;7.88;;;14.30;49.40;;;;;;5034349;28;20184;-43
2022/10/27 04:41:00;;;;;;;9.33;7.13;;;14.30;48.80;;;;;;5034036;28;20241;-43
2022/10/27 04:43:27;;;;;;;10.05;7.45;;;14.30;48.90;;;;;;5033891;28;20585;-43
2022/10/27 04:45:52;;;;;;;15.05;9.68;;;14.30;49.00;;;;;;5033339;28;20178;-43
2022/10/27 04:48:18;;;;;;;16.43;9.73;;;14.30;49.50;;;;;;5034128;28;20256;-43
2022/10/27 04:50:44;;;;;;;11.83;9.07;;;14.30;49.80;;;;;;5034087;28;20228;-43
2022/10/27 04:53:10;;;;;;;13.57;8.57;;;14.40;49.70;;;;;;5034056;28;20645;-43
2022/10/27 04:55:35;;;;;;;11.23;9.60;;;14.40;49.70;;;;;;5033270;28;20182;-43
2022/10/27 04:58:01;;;;;;;12.70;8.70;;;14.40;49.70;;;;;;5033723;28;20439;-43
2022/10/27 05:00:27;;;;;;;12.20;8.77;;;14.50;49.90;;;;;;5033984;28;20415;-43
2022/10/27 05:02:55;;;;;;;15.13;9.20;;;14.50;50.60;;;;;;5033432;28;20252;-44
2022/10/27 05:05:22;;;;;;;13.65;8.27;;;14.50;50.40;;;;;;5034139;28;20850;-43
2022/10/27 05:07:59;;;;;;;12.40;8.98;;;14.50;50.00;;;;;;5033106;28;20860;-44
2022/10/27 05:10:26;;;;;;;13.35;8.27;;;14.50;49.80;;;;;;5033669;28;20166;-44
2022/10/27 05:12:52;;;;;;;10.90;8.80;;;14.50;50.00;;;;;;5033584;28;20192;-43
2022/10/27 05:15:18;;;;;;;12.43;8.63;;;14.50;50.10;;;;;;5033266;28;20190;-44
2022/10/27 05:17:43;;;;;;;14.50;8.70;;;14.50;50.00;;;;;;5033108;28;20612;-43
2022/10/27 05:20:10;;;;;;;15.80;9.50;;;14.50;50.20;;;;;;5033557;28;20431;-43
2022/10/27 05:22:37;;;;;;;14.63;10.32;;;14.50;50.30;;;;;;5033469;28;20205;-44
2022/10/27 05:25:03;;;;;;;14.05;8.73;;;14.50;50.60;;;;;;5033341;28;20327;-43
2022/10/27 05:27:31;;;;;;;16.63;9.88;;;14.50;50.50;;;;;;5032578;28;20792;-43
2022/10/27 05:29:57;;;;;;;17.35;12.10;;;14.60;50.50;;;;;;5033365;28;20182;-44
2022/10/27 05:32:22;;;;;;;17.60;11.93;;;14.50;50.50;;;;;;5033010;28;20711;-44
2022/10/27 05:34:48;;;;;;;15.00;9.40;;;14.50;50.70;;;;;;5032924;28;20540;-44
2022/10/27 05:37:14;;;;;;;17.10;8.93;;;14.60;50.70;;;;;;5032452;28;20409;-44
2022/10/27 05:39:40;;;;;;;14.90;10.70;;;14.60;50.50;;;;;;5032877;28;20177;-44
2022/10/27 05:42:05;;;;;;;12.77;8.80;;;14.60;50.70;;;;;;5033048;28;20205;-44
2022/10/27 05:44:31;;;;;;;13.20;10.10;;;14.50;50.70;;;;;;5032887;28;20201;-44
2022/10/27 05:46:57;;;;;;;14.67;9.53;;;14.60;50.80;;;;;;5032340;28;20637;-44
2022/10/27 05:49:23;;;;;;;11.60;8.83;;;14.50;50.80;;;;;;5032871;28;20577;-44
2022/10/27 05:51:50;;;;;;;14.83;9.90;;;14.50;50.70;;;;;;5032630;28;20419;-44
2022/10/27 05:54:16;;;;;;;20.88;10.23;;;14.50;50.50;;;;;;5032648;28;20673;-44
2022/10/27 05:56:42;;;;;;;15.60;8.98;;;14.50;50.30;;;;;;5032060;28;20189;-43
2022/10/27 05:59:09;;;;;;;14.90;9.03;;;14.50;50.20;;;;;;5032563;28;20181;-43
2022/10/27 06:01:35;;;;;;;14.25;9.77;;;14.50;50.00;;;;;;5032425;28;20448;-43
2022/10/27 06:04:01;;;;;;;12.97;8.50;;;14.40;49.70;;;;;;5032600;28;20285;-44
2022/10/27 06:06:27;;;;;;;15.20;10.47;;;14.40;49.90;;;;;;5032387;28;20488;-43
2022/10/27 06:08:52;;;;;;;12.00;8.47;;;14.30;50.10;;;;;;5032309;28;20232;-44
2022/10/27 06:11:19;;;;;;;11.23;8.50;;;14.30;50.20;;;;;;5032280;28;20450;-44
2022/10/27 06:13:47;;;;;;;14.55;9.68;;;14.30;50.20;;;;;;5032328;28;20186;-44
2022/10/27 06:16:13;;;;;;;14.55;9.35;;;14.30;50.30;;;;;;5031790;28;20216;-44
2022/10/27 06:18:39;;;;;;;14.43;9.23;;;14.40;50.20;;;;;;5032463;28;20213;-43
2022/10/27 06:21:04;;;;;;;14.70;11.03;;;14.60;50.20;;;;;;5032169;28;20170;-43
2022/10/27 06:23:30;;;;;;;14.67;10.50;;;14.70;50.40;;;;;;5032136;28;20229;-43
2022/10/27 06:25:56;;;;;;;18.40;11.90;;;14.80;50.20;;;;;;5031899;28;20584;-44
2022/10/27 06:28:22;;;;;;;13.50;10.30;;;14.90;50.30;;;;;;5031870;28;20174;-44
2022/10/27 06:30:47;;;;;;;19.00;13.10;;;14.90;50.80;;;;;;5032328;28;20174;-44
2022/10/27 06:33:13;;;;;;;21.97;12.53;;;14.90;51.50;;;;;;5032325;28;20316;-43
2022/10/27 06:35:39;;;;;;;17.07;13.10;;;14.90;51.80;;;;;;5031821;28;20173;-43
2022/10/27 06:38:05;;;;;;;12.97;10.60;;;15.00;51.70;;;;;;5055236;22;20233;-40
2022/10/27 06:40:30;;;;;;;15.33;10.40;;;15.20;51.60;;;;;;5031956;28;20755;-40
2022/10/27 06:42:56;;;;;;;17.37;12.63;;;15.30;51.30;;;;;;5032280;28;20201;-40
2022/10/27 06:45:22;;;;;;;15.70;10.73;;;15.50;51.00;;;;;;5031997;28;20258;-39
2022/10/27 06:48:00;;;;;;;16.35;10.98;;;15.80;50.80;;;;;;5031359;28;20166;-40
2022/10/27 06:50:26;;;;;;;16.17;12.90;;;16.20;50.60;;;;;;5031919;28;20590;-40
2022/10/27 06:52:52;;;;;;;14.35;11.18;;;16.60;50.00;;;;;;5032126;28;20174;-40
2022/10/27 06:55:19;;;;;;;13.50;9.65;;;16.90;49.40;;;;;;5032146;28;20178;-40
2022/10/27 06:57:44;;;;;;;17.63;11.65;;;17.10;48.90;;;;;;5031416;28;20197;-40
2022/10/27 07:00:11;;;;;;;16.80;11.07;;;17.10;48.50;;;;;;5031854;28;20181;-40
2022/10/27 07:02:37;;;;;;;15.73;11.27;;;17.10;48.40;;;;;;5031693;28;20200;-43
2022/10/27 07:05:04;;;;;;;34.87;25.27;;;17.10;48.40;;;;;;5031850;28;20170;-43
2022/10/27 07:07:30;;;;;;;46.28;39.40;;;16.90;48.60;;;;;;5031370;28;20169;-43
2022/10/27 07:09:55;;;;;;;32.33;27.00;;;16.80;48.80;;;;;;5032004;28;20198;-43
2022/10/27 07:12:21;;;;;;;23.50;17.80;;;17.10;49.30;;;;;;5031862;28;20486;-42
2022/10/27 07:14:47;;;;;;;19.80;15.00;;;17.60;49.60;;;;;;5031740;28;20170;-43
2022/10/27 07:17:13;;;;;;;17.17;13.63;;;18.00;48.90;;;;;;5031249;28;20174;-43
2022/10/27 07:19:39;;;;;;;16.73;12.35;;;18.30;47.80;;;;;;5031615;28;20190;-43
2022/10/27 07:22:05;;;;;;;18.93;14.10;;;18.60;47.30;;;;;;5031661;28;20213;-43
2022/10/27 07:24:30;;;;;;;17.97;12.80;;;18.60;46.60;;;;;;5031840;28;20173;-43
2022/10/27 07:26:56;;;;;;;12.27;10.53;;;18.50;46.40;;;;;;5031235;28;20228;-43
2022/10/27 07:29:22;;;;;;;20.43;12.10;;;18.40;46.60;;;;;;5031562;28;20205;-42
2022/10/27 07:31:48;;;;;;;22.10;13.10;;;18.30;46.90;;;;;;5031477;28;20243;-43
2022/10/27 07:34:13;;;;;;;23.27;17.80;;;18.30;47.00;;;;;;5031668;28;20202;-43
2022/10/27 07:36:39;;;;;;;17.17;13.83;;;18.70;47.60;;;;;;5030937;28;20265;-43
2022/10/27 07:39:05;;;;;;;17.73;14.60;;;18.90;47.40;;;;;;5031729;28;20208;-43
2022/10/27 07:41:31;;;;;;;17.92;12.15;;;19.00;46.60;;;;;;5035077;28;20198;-43
2022/10/27 07:43:57;;;;;;;16.97;12.57;;;19.50;46.50;;;;;;5035098;28;20228;-43
2022/10/27 07:46:23;;;;;;;16.23;11.60;;;20.00;45.60;;;;;;5034452;28;20881;-43
2022/10/27 07:48:48;;;;;;;16.33;10.77;;;20.50;44.80;;;;;;5034935;28;20255;-43
2022/10/27 07:51:14;;;;;;;13.03;11.63;;;20.90;43.60;;;;;;5035038;28;20170;-43
2022/10/27 07:53:40;;;;;;;22.03;16.20;;;21.00;42.60;;;;;;5034991;28;20174;-43
2022/10/27 07:56:06;;;;;;;17.00;11.70;;;21.20;43.10;;;;;;5034269;28;20463;-43
2022/10/27 07:58:35;;;;;;;17.90;12.13;;;21.20;42.60;;;;;;5034807;28;20193;-43
2022/10/27 08:01:02;;;;;;;16.75;12.60;;;21.20;42.10;;;;;;5034739;28;20455;-44
2022/10/27 08:03:30;;;;;;;16.83;12.45;;;21.10;42.60;;;;;;5034720;28;20201;-43
2022/10/27 08:06:02;;;;;;;14.60;12.05;;;21.20;43.80;;;;;;5034130;28;20638;-43
2022/10/27 08:08:29;;;;;;;15.80;11.95;;;21.20;43.10;;;;;;5034684;28;20190;-43
2022/10/27 08:10:55;;;;;;;15.00;12.52;;;21.40;43.00;;;;;;5034624;28;20177;-44
2022/10/27 08:13:20;;;;;;;18.73;12.10;;;21.70;42.80;;;;;;5034474;28;20174;-43
2022/10/27 08:15:47;;;;;;;14.00;10.60;;;22.10;41.80;;;;;;5033876;28;20201;-44
2022/10/27 08:18:13;;;;;;;13.82;9.57;;;22.30;41.50;;;;;;5034487;28;20244;-44
2022/10/27 08:20:46;;;;;;;14.93;10.52;;;22.50;41.20;;;;;;5034603;28;20605;-44
2022/10/27 08:23:14;;;;;;;12.83;10.67;;;22.60;41.00;;;;;;5034471;28;20292;-44
2022/10/27 08:25:41;;;;;;;13.67;9.97;;;22.70;40.70;;;;;;5033789;28;20492;-44
2022/10/27 08:28:08;;;;;;;12.63;9.07;;;22.70;40.60;;;;;;5034033;28;20421;-43
2022/10/27 08:30:34;;;;;;;13.30;9.80;;;22.80;40.40;;;;;;5034329;28;20764;-44
2022/10/27 08:33:01;;;;;;;11.23;9.80;;;23.00;39.60;;;;;;5034529;28;20465;-44
2022/10/27 08:35:30;;;;;;;14.57;9.30;;;23.10;39.40;;;;;;5034133;28;20409;-44
2022/10/27 08:38:10;;;;;;;10.87;9.03;;;23.30;39.20;;;;;;5033643;28;20447;-44
2022/10/27 08:41:10;;;;;;;11.63;9.07;;;23.50;39.00;;;;;;5033990;28;20409;-44
2022/10/27 08:43:45;;;;;;;10.13;9.00;;;23.40;39.00;;;;;;5033953;28;20432;-44
2022/10/27 08:46:27;;;;;;;14.67;10.37;;;23.30;39.10;;;;;;5033475;28;20472;-44
2022/10/27 08:48:57;;;;;;;8.97;7.77;;;23.40;38.60;;;;;;5033897;28;20420;-44
2022/10/27 08:51:24;;;;;;;11.70;9.70;;;23.50;38.60;;;;;;5033648;28;20420;-43
2022/10/27 08:53:53;;;;;;;14.77;9.47;;;23.70;38.90;;;;;;5033867;28;20392;-43
2022/10/27 08:56:22;;;;;;;12.70;8.13;;;23.90;38.60;;;;;;5033226;28;20405;-44
2022/10/27 08:58:48;;;;;;;9.60;7.53;;;23.90;39.00;;;;;;5033701;28;20417;-44
2022/10/27 09:01:43;;;;;;;12.83;9.57;;;23.90;38.60;;;;;;5033627;28;20488;-44
2022/10/27 09:04:22;;;;;;;10.30;7.97;;;23.90;39.20;;;;;;5033670;28;20488;-44
2022/10/27 09:07:20;;;;;;;9.50;7.57;;;23.90;39.70;;;;;;5033273;28;20491;-44
2022/10/27 09:09:59;;;;;;;12.47;8.90;;;23.80;37.80;;;;;;5033235;28;20420;-43
2022/10/27 09:12:34;;;;;;;14.93;9.90;;;23.50;39.20;;;;;;5033721;28;20753;-44
2022/10/27 09:15:13;;;;;;;11.60;8.47;;;23.40;39.70;;;;;;5033514;28;20395;-44
2022/10/27 09:18:23;;;;;;;7.23;6.50;;;23.30;40.10;;;;;;5033091;28;20523;-44
2022/10/27 09:20:53;;;;;;;17.17;11.00;;;23.30;40.40;;;;;;4995454;28;20984;-44
2022/10/27 09:23:24;;;;;;;25.17;10.80;;;23.40;39.50;;;;;;5033204;28;20513;-43
2022/10/27 09:25:53;;;;;;;12.37;9.30;;;23.30;40.30;;;;;;5032651;28;20480;-44
2022/10/27 09:28:33;;;;;;;10.30;7.90;;;23.30;39.80;;;;;;5033066;28;20566;-44
2022/10/27 09:30:59;;;;;;;12.23;6.90;;;23.20;39.80;;;;;;5033338;28;20397;-43
2022/10/27 09:33:33;;;;;;;9.47;8.50;;;23.10;40.70;;;;;;5033100;28;20397;-44
2022/10/27 09:36:05;;;;;;;11.70;7.43;;;23.10;41.30;;;;;;5032703;28;20397;-44
2022/10/27 09:38:31;;;;;;;9.70;7.33;;;23.20;41.20;;;;;;5032946;28;20542;-44
2022/10/27 09:40:57;;;;;;;9.70;6.87;;;23.30;41.70;;;;;;5032883;28;20409;-42
2022/10/27 09:43:23;;;;;;;7.80;6.20;;;23.30;40.40;;;;;;5032759;28;20959;-44
2022/10/27 09:45:54;;;;;;;9.70;6.53;;;23.40;41.00;;;;;;5032648;28;20538;-44
2022/10/27 09:48:23;;;;;;;8.47;7.33;;;23.50;41.00;;;;;;5033181;28;20889;-44
2022/10/27 09:50:57;;;;;;;15.23;8.10;;;23.50;40.30;;;;;;5032697;28;20960;-43
2022/10/27 09:53:46;;;;;;;6.80;5.67;;;23.60;41.00;;;;;;5032768;28;20403;-44
2022/10/27 09:56:37;;;;;;;24.50;17.83;;;23.70;41.50;;;;;;5032091;28;20397;-44
2022/10/27 09:59:06;;;;;;;13.07;6.20;;;24.20;40.80;;;;;;5032018;28;20467;-44
2022/10/27 10:01:44;;;;;;;7.30;6.40;;;25.00;39.70;;;;;;5032035;28;20440;-44
2022/10/27 10:04:24;;;;;;;9.13;5.83;;;25.40;38.00;;;;;;5032512;28;20436;-44
2022/10/27 10:07:02;;;;;;;7.50;5.93;;;25.40;37.50;;;;;;5032062;28;20381;-44
2022/10/27 10:09:29;;;;;;;8.80;6.60;;;25.50;37.90;;;;;;5032389;28;20420;-44
2022/10/27 10:12:19;;;;;;;6.80;5.60;;;25.50;37.90;;;;;;5032653;28;20455;-44
2022/10/27 10:14:45;;;;;;;7.63;5.47;;;25.50;37.00;;;;;;5032357;28;20404;-44
2022/10/27 10:17:21;;;;;;;14.93;8.67;;;25.40;37.80;;;;;;5031247;28;20412;-44
2022/10/27 10:19:48;;;;;;;6.90;5.47;;;25.30;37.90;;;;;;5032063;28;20428;-44
2022/10/27 10:22:40;;;;;;;8.53;6.40;;;25.20;38.10;;;;;;5032529;28;20801;-44
2022/10/27 10:25:32;;;;;;;14.40;9.60;;;25.20;37.10;;;;;;5027655;28;20503;-44
2022/10/27 10:28:02;;;;;;;11.10;8.40;;;25.20;37.20;;;;;;5032424;28;20424;-44
2022/10/27 10:30:38;;;;;;;8.53;6.30;;;24.90;37.80;;;;;;5032207;28;20805;-44
2022/10/27 10:33:12;;;;;;;9.43;6.50;;;24.80;38.50;;;;;;5032382;28;20416;-45
2022/10/27 10:35:49;;;;;;;8.33;6.30;;;24.80;37.70;;;;;;5031667;28;20416;-44
2022/10/27 10:38:23;;;;;;;24.80;15.27;;;24.70;37.90;;;;;;5031886;28;20549;-43
2022/10/27 10:41:12;;;;;;;26.43;19.70;;;24.70;37.70;;;;;;5032036;28;20409;-44
2022/10/27 10:43:39;;;;;;;15.40;7.60;;;24.60;39.00;;;;;;5031977;28;20424;-44
2022/10/27 10:46:11;;;;;;;10.57;7.07;;;24.60;38.80;;;;;;5031627;28;20397;-44
2022/10/27 10:48:46;;;;;;;5.83;5.30;;;24.60;39.60;;;;;;5032039;28;20415;-44
2022/10/27 10:51:12;;;;;;;10.33;6.43;;;24.80;39.60;;;;;;5032279;28;20378;-44
2022/10/27 10:53:47;;;;;;;8.27;5.57;;;24.90;39.10;;;;;;5031980;28;20496;-45
2022/10/27 10:56:19;;;;;;;8.10;5.63;;;25.00;39.20;;;;;;5031275;28;20385;-44
2022/10/27 10:58:47;;;;;;;9.00;5.30;;;25.20;38.40;;;;;;5031783;28;20417;-44
2022/10/27 11:01:12;;;;;;;8.47;5.57;;;25.30;38.00;;;;;;5032070;28;20425;-44
2022/10/27 11:03:44;;;;;;;10.20;6.20;;;25.40;38.20;;;;;;5032035;28;20947;-45
2022/10/27 11:06:20;;;;;;;7.53;5.73;;;25.50;38.50;;;;;;5031282;28;20657;-45
2022/10/27 11:08:58;;;;;;;7.77;5.43;;;25.80;37.90;;;;;;5031671;28;20431;-44
2022/10/27 11:11:30;;;;;;;7.57;6.00;;;26.30;37.00;;;;;;5031849;28;20412;-44
2022/10/27 11:14:09;;;;;;;6.13;5.17;;;26.80;35.90;;;;;;5033687;28;20452;-45
2022/10/27 11:16:37;;;;;;;4.97;4.07;;;26.80;34.80;;;;;;5035128;28;20483;-45
2022/10/27 11:19:06;;;;;;;9.33;5.17;;;26.70;35.80;;;;;;5035430;28;20491;-45
2022/10/27 11:21:47;;;;;;;6.13;3.87;;;26.70;35.80;;;;;;5035486;28;20916;-45
2022/10/27 11:24:21;;;;;;;9.03;4.17;;;26.70;35.70;;;;;;5035420;28;20761;-45
2022/10/27 11:27:04;;;;;;;7.37;3.67;;;27.20;35.20;;;;;;5034944;28;20768;-45
2022/10/27 11:30:02;;;;;;;5.83;4.30;;;27.30;35.20;;;;;;5035380;28;20463;-43
2022/10/27 11:32:54;;;;;;;9.40;3.73;;;27.20;35.20;;;;;;5028989;28;20424;-45
2022/10/27 11:35:27;;;;;;;5.97;4.10;;;27.10;35.20;;;;;;5035267;28;20401;-45
2022/10/27 11:38:15;;;;;;;4.37;3.97;;;27.00;35.60;;;;;;5034629;28;20515;-45
2022/10/27 11:41:03;;;;;;;5.10;3.83;;;27.00;35.00;;;;;;5035318;28;20415;-45
2022/10/27 11:43:51;;;;;;;5.47;4.13;;;27.00;35.10;;;;;;5035120;28;20535;-45
2022/10/27 11:46:28;;;;;;;12.50;4.67;;;26.90;34.40;;;;;;5034812;28;20800;-44
2022/10/27 11:49:11;;;;;;;6.70;3.33;;;27.00;34.30;;;;;;5035224;28;20420;-44
2022/10/27 11:51:45;;;;;;;4.50;3.33;;;27.00;35.30;;;;;;5035068;28;20389;-45
2022/10/27 11:54:11;;;;;;;5.57;3.50;;;27.30;35.30;;;;;;5035014;28;20472;-45
2022/10/27 11:56:49;;;;;;;4.93;3.30;;;28.00;34.40;;;;;;5034240;28;20408;-44
2022/10/27 11:59:38;;;;;;;4.53;3.60;;;28.70;33.10;;;;;;5034830;28;20431;-45
2022/10/27 12:02:12;;;;;;;6.93;3.00;;;29.10;32.30;;;;;;5035337;28;20514;-44
2022/10/27 12:05:06;;;;;;;5.97;3.20;;;29.20;33.20;;;;;;5035721;28;20405;-46
2022/10/27 12:07:53;;;;;;;5.67;3.13;;;29.00;31.40;;;;;;5034182;28;20916;-44
2022/10/27 12:10:44;;;;;;;6.70;3.00;;;28.70;31.50;;;;;;5035991;28;20432;-43
2022/10/27 12:13:29;;;;;;;3.07;2.70;;;28.50;31.60;;;;;;4989764;28;20427;-45
2022/10/27 12:16:01;;;;;;;4.77;3.60;;;28.40;32.10;;;;;;5034197;28;20425;-44
2022/10/27 12:18:55;;;;;;;4.30;2.93;;;28.20;32.10;;;;;;5034780;28;20512;-45
2022/10/27 12:21:21;;;;;;;5.00;2.90;;;28.20;33.20;;;;;;5034560;28;20488;-44
2022/10/27 12:23:58;;;;;;;3.40;2.03;;;28.20;33.10;;;;;;5034631;28;20495;-43
2022/10/27 12:26:36;;;;;;;2.63;2.10;;;28.40;31.50;;;;;;5032974;28;20231;-44
2022/10/27 12:29:04;;;;;;;2.87;2.40;;;28.50;31.60;;;;;;5034609;28;20455;-44
2022/10/27 12:31:34;;;;;;;3.03;1.83;;;28.60;31.20;;;;;;5034389;28;20734;-44
2022/10/27 12:34:02;;;;;;;3.50;2.20;;;28.60;31.90;;;;;;5034125;28;20416;-43
2022/10/27 12:36:36;;;;;;;4.10;2.20;;;28.70;32.20;;;;;;5033629;28;20413;-44
2022/10/27 12:39:26;;;;;;;4.00;3.13;;;28.90;32.20;;;;;;5033921;28;20542;-45
2022/10/27 12:42:21;;;;;;;4.27;3.30;;;29.10;30.90;;;;;;5034106;28;20811;-44
2022/10/27 12:45:01;;;;;;;3.43;2.67;;;29.60;31.20;;;;;;5034347;28;20429;-44
2022/10/27 12:47:45;;;;;;;3.87;2.50;;;30.30;30.10;;;;;;5033400;28;20466;-45
2022/10/27 12:50:30;;;;;;;5.33;2.20;;;30.70;28.70;;;;;;5033976;28;20408;-46
2022/10/27 12:53:12;;;;;;;5.03;3.00;;;31.00;29.60;;;;;;5034088;28;20431;-44
2022/10/27 12:56:29;;;;;;;4.90;2.97;;;31.20;28.30;;;;;;5033618;28;20437;-45